Time;durP1;ratioP1;P1;durP2;ratioP2;P2;SDS_P1;SDS_P2;PMS_P1;PMS_P2;Temp;Humidity;BMP_temperature;BMP_pressure;BME280_temperature;BME280_humidity;BME280_pressure;Samples;Min_cycle;Max_cycle;Signal;HPM_P1;HPM_P2
2023/03/12 00:01:12;;;;;;;7.65;2.85;;;-0.60;99.90;;;;;;4972165;28;20050;-76
2023/03/12 00:03:39;;;;;;;5.78;2.38;;;-0.70;99.90;;;;;;4954696;28;20054;-77
2023/03/12 00:06:05;;;;;;;6.78;2.83;;;-0.70;99.90;;;;;;4972154;28;20133;-76
2023/03/12 00:08:31;;;;;;;8.15;2.70;;;-0.70;99.90;;;;;;4972146;28;20050;-77
2023/03/12 00:10:56;;;;;;;8.88;3.20;;;-0.70;99.90;;;;;;4971447;28;20054;-77
2023/03/12 00:13:22;;;;;;;8.27;2.83;;;-0.70;99.90;;;;;;4979418;28;20228;-77
2023/03/12 00:15:48;;;;;;;6.75;2.85;;;-0.80;99.90;;;;;;4990416;28;20108;-77
2023/03/12 00:18:13;;;;;;;5.80;2.83;;;-0.80;99.90;;;;;;4975842;28;20160;-77
2023/03/12 00:20:39;;;;;;;11.93;3.47;;;-0.80;99.90;;;;;;4972447;28;20129;-78
2023/03/12 00:23:04;;;;;;;9.27;3.55;;;-0.80;99.90;;;;;;4962225;28;20495;-77
2023/03/12 00:25:30;;;;;;;12.43;4.70;;;-0.80;99.90;;;;;;4971488;28;20485;-76
2023/03/12 00:27:56;;;;;;;9.35;4.38;;;-0.90;99.90;;;;;;4974941;28;20413;-77
2023/03/12 00:30:21;;;;;;;13.48;5.50;;;-0.90;99.90;;;;;;4989643;28;20050;-77
2023/03/12 00:32:47;;;;;;;16.67;6.25;;;-0.90;99.90;;;;;;4974665;28;20149;-77
2023/03/12 00:35:13;;;;;;;11.80;5.15;;;-0.90;99.90;;;;;;4972957;28;20050;-77
2023/03/12 00:37:38;;;;;;;9.65;4.35;;;-0.90;99.90;;;;;;4981936;28;20473;-77
2023/03/12 00:40:07;;;;;;;12.00;4.18;;;-0.90;99.90;;;;;;4982790;28;20061;-77
2023/03/12 00:42:33;;;;;;;9.90;4.03;;;-0.90;99.90;;;;;;4974029;28;20050;-76
2023/03/12 00:44:58;;;;;;;17.55;4.97;;;-0.90;99.90;;;;;;4982218;28;20046;-76
2023/03/12 00:47:24;;;;;;;14.73;4.75;;;-0.90;99.90;;;;;;4975830;28;20061;-77
2023/03/12 00:49:49;;;;;;;11.82;4.53;;;-0.90;99.90;;;;;;4973412;28;20043;-78
2023/03/12 00:52:15;;;;;;;9.73;3.45;;;-0.90;99.90;;;;;;4976593;28;20046;-77
2023/03/12 00:54:41;;;;;;;13.05;3.60;;;-0.90;99.90;;;;;;4971052;28;20054;-78
2023/03/12 00:57:06;;;;;;;12.27;5.07;;;-0.90;99.90;;;;;;4969310;28;20050;-77
2023/03/12 00:59:32;;;;;;;12.18;4.78;;;-0.90;99.90;;;;;;4970698;28;20046;-76
2023/03/12 01:01:58;;;;;;;17.70;6.75;;;-0.90;99.90;;;;;;4989524;28;20141;-78
2023/03/12 01:04:23;;;;;;;19.20;7.18;;;-0.90;99.90;;;;;;4976022;28;20055;-76
2023/03/12 01:06:49;;;;;;;21.90;7.70;;;-0.90;99.90;;;;;;4978917;28;20036;-78
2023/03/12 01:09:15;;;;;;;24.55;7.65;;;-0.90;99.90;;;;;;4983631;28;20057;-77
2023/03/12 01:11:40;;;;;;;22.55;7.18;;;-0.90;99.90;;;;;;4974039;28;20109;-76
2023/03/12 01:14:07;;;;;;;21.88;7.38;;;-0.90;99.90;;;;;;4978485;28;20434;-79
2023/03/12 01:16:33;;;;;;;22.77;7.00;;;-0.90;99.90;;;;;;4970632;28;20505;-77
2023/03/12 01:19:00;;;;;;;11.18;4.43;;;-0.90;99.90;;;;;;4978643;28;20051;-76
2023/03/12 01:21:26;;;;;;;14.32;4.88;;;-0.90;99.90;;;;;;4969096;28;20074;-77
2023/03/12 01:23:52;;;;;;;10.68;4.40;;;-0.90;99.90;;;;;;4970810;28;20057;-76
2023/03/12 01:26:18;;;;;;;10.63;3.67;;;-0.90;99.90;;;;;;4981424;28;20052;-78
2023/03/12 01:28:44;;;;;;;7.13;3.90;;;-0.90;99.90;;;;;;4983419;28;20042;-76
2023/03/12 01:31:13;;;;;;;7.45;3.50;;;-0.90;99.90;;;;;;4985414;28;20050;-77
2023/03/12 01:33:39;;;;;;;7.18;3.40;;;-0.90;99.90;;;;;;4994016;28;20085;-78
2023/03/12 01:36:13;;;;;;;6.72;3.47;;;-0.90;99.90;;;;;;4994028;28;20102;-80
2023/03/12 01:38:39;;;;;;;10.43;3.45;;;-0.90;99.90;;;;;;4994082;28;20050;-77
2023/03/12 01:41:05;;;;;;;6.93;3.05;;;-0.90;99.90;;;;;;4993724;28;20105;-77
2023/03/12 01:43:34;;;;;;;10.25;3.22;;;-0.90;99.90;;;;;;4993738;28;20046;-77
2023/03/12 01:46:26;;;;;;;9.13;3.38;;;-0.90;99.90;;;;;;4993357;28;20054;-76
2023/03/12 01:48:57;;;;;;;9.90;3.45;;;-0.90;99.90;;;;;;4993713;28;20053;-75
2023/03/12 01:51:28;;;;;;;8.55;3.53;;;-0.90;99.90;;;;;;4976076;28;20046;-77
2023/03/12 01:53:58;;;;;;;10.20;3.20;;;-0.90;99.90;;;;;;4993493;28;20047;-75
2023/03/12 01:56:29;;;;;;;7.68;3.17;;;-0.90;99.90;;;;;;5012085;28;20504;-76
2023/03/12 01:59:01;;;;;;;6.32;3.28;;;0.00;99.90;;;;;;5004303;28;20485;-76
2023/03/12 02:01:28;;;;;;;7.82;3.60;;;-0.90;99.90;;;;;;4993453;28;20041;-76
2023/03/12 02:03:55;;;;;;;8.27;3.88;;;-0.80;99.90;;;;;;4993498;28;20120;-74
2023/03/12 02:06:38;;;;;;;8.30;4.35;;;-0.90;99.90;;;;;;4993442;28;20846;-76
2023/03/12 02:09:06;;;;;;;6.18;3.70;;;-0.80;99.90;;;;;;4993112;28;20074;-77
2023/03/12 02:11:31;;;;;;;8.55;3.78;;;-0.80;99.90;;;;;;4993405;28;20066;-76
2023/03/12 02:13:57;;;;;;;9.38;3.95;;;-0.80;99.90;;;;;;4993122;28;20078;-75
2023/03/12 02:16:23;;;;;;;8.93;4.07;;;-0.80;99.90;;;;;;4996212;28;20048;-76
2023/03/12 02:18:51;;;;;;;9.25;4.07;;;-0.80;99.90;;;;;;4997887;28;20046;-77
2023/03/12 02:21:28;;;;;;;8.60;3.90;;;-0.80;99.90;;;;;;4993509;28;20482;-77
2023/03/12 02:24:29;;;;;;;12.55;3.67;;;-0.70;99.90;;;;;;4993888;28;20050;-76
2023/03/12 02:26:56;;;;;;;8.20;4.10;;;-0.70;99.90;;;;;;4932450;29;20098;-77
2023/03/12 02:29:24;;;;;;;13.10;3.92;;;-0.70;99.90;;;;;;4916161;29;20180;-76
2023/03/12 02:31:53;;;;;;;12.10;4.60;;;-0.70;99.90;;;;;;4931907;29;20103;-76
2023/03/12 02:34:19;;;;;;;9.07;3.58;;;-0.70;99.90;;;;;;4931556;29;20185;-77
2023/03/12 02:36:45;;;;;;;7.15;3.60;;;-0.60;99.90;;;;;;4932038;29;20138;-76
2023/03/12 02:39:11;;;;;;;8.55;3.50;;;-0.60;99.90;;;;;;4915396;29;20490;-78
2023/03/12 02:41:47;;;;;;;9.68;3.85;;;-0.60;99.90;;;;;;4931496;29;20052;-77
2023/03/12 02:44:18;;;;;;;8.45;3.47;;;-0.60;99.90;;;;;;4931221;29;20058;-77
2023/03/12 02:46:48;;;;;;;9.25;3.22;;;-0.60;99.90;;;;;;4931438;29;20056;-77
2023/03/12 02:49:14;;;;;;;12.90;2.80;;;-0.60;99.90;;;;;;4929784;29;20423;-76
2023/03/12 02:51:41;;;;;;;6.82;3.00;;;-0.50;99.90;;;;;;4913402;29;20056;-76
2023/03/12 02:54:08;;;;;;;7.47;3.33;;;-0.50;99.90;;;;;;4913366;29;20107;-75
2023/03/12 02:56:34;;;;;;;8.68;3.40;;;-0.50;99.90;;;;;;4897364;29;20090;-76
2023/03/12 02:59:00;;;;;;;7.97;3.25;;;-0.50;99.90;;;;;;4913153;29;20495;-76
2023/03/12 03:01:26;;;;;;;15.07;4.18;;;-0.40;99.90;;;;;;4904010;29;20479;-78
2023/03/12 03:03:53;;;;;;;13.20;3.72;;;-0.40;99.90;;;;;;4988051;28;20054;-76
2023/03/12 03:06:19;;;;;;;8.70;3.50;;;-0.40;99.90;;;;;;5002483;28;20046;-76
2023/03/12 03:08:44;;;;;;;6.95;3.60;;;-0.40;99.90;;;;;;5003774;28;20046;-77
2023/03/12 03:11:10;;;;;;;10.57;3.85;;;-0.30;99.90;;;;;;5007237;28;20049;-77
2023/03/12 03:13:36;;;;;;;10.13;3.40;;;-0.30;99.90;;;;;;5000426;28;20073;-77
2023/03/12 03:16:02;;;;;;;8.65;3.40;;;-0.30;99.90;;;;;;5000292;28;20120;-76
2023/03/12 03:18:29;;;;;;;7.63;3.13;;;-0.20;99.90;;;;;;5000633;28;20056;-77
2023/03/12 03:20:55;;;;;;;8.65;3.58;;;-0.20;99.90;;;;;;4985741;28;20046;-77
2023/03/12 03:23:21;;;;;;;8.20;3.42;;;-0.20;99.90;;;;;;5000544;28;20091;-75
2023/03/12 03:25:47;;;;;;;8.88;3.22;;;-0.20;99.90;;;;;;5000135;28;20053;-75
2023/03/12 03:28:13;;;;;;;8.32;3.53;;;-0.10;99.90;;;;;;4996692;28;20046;-76
2023/03/12 03:30:38;;;;;;;7.78;3.60;;;-0.10;99.90;;;;;;5012530;28;20090;-75
2023/03/12 03:33:04;;;;;;;6.78;3.08;;;-0.10;99.90;;;;;;4999957;28;20062;-77
2023/03/12 03:35:30;;;;;;;10.23;3.85;;;-0.10;99.90;;;;;;5000052;28;20065;-77
2023/03/12 03:37:55;;;;;;;6.78;3.35;;;-0.10;99.90;;;;;;5000053;28;20124;-77
2023/03/12 03:40:21;;;;;;;7.07;2.92;;;0.00;99.90;;;;;;4999551;28;20654;-78
2023/03/12 03:42:47;;;;;;;8.75;3.70;;;0.00;99.90;;;;;;4994026;28;20522;-78
2023/03/12 03:45:12;;;;;;;9.98;4.20;;;0.00;99.90;;;;;;5011321;28;20404;-75
2023/03/12 03:47:38;;;;;;;7.00;3.50;;;0.00;99.90;;;;;;4991853;28;20125;-76
2023/03/12 03:50:05;;;;;;;9.32;3.40;;;0.00;99.90;;;;;;4998330;28;20465;-75
2023/03/12 03:52:31;;;;;;;6.95;3.40;;;0.00;99.90;;;;;;5002236;28;20056;-76
2023/03/12 03:54:58;;;;;;;9.45;3.63;;;0.00;99.90;;;;;;4984672;28;20062;-76
2023/03/12 03:57:24;;;;;;;10.00;3.90;;;0.00;99.90;;;;;;4997454;28;20370;-76
2023/03/12 03:59:50;;;;;;;8.40;3.80;;;0.00;99.90;;;;;;4994371;28;20042;-77
2023/03/12 04:02:16;;;;;;;7.18;3.40;;;0.10;99.90;;;;;;4999933;28;20053;-76
2023/03/12 04:04:42;;;;;;;7.13;3.47;;;0.10;99.90;;;;;;5004989;28;20042;-78
2023/03/12 04:07:08;;;;;;;7.88;4.05;;;0.10;99.90;;;;;;4999402;28;20675;-75
2023/03/12 04:09:33;;;;;;;9.38;3.80;;;0.10;99.90;;;;;;5006126;28;20042;-76
2023/03/12 04:11:59;;;;;;;8.45;3.40;;;0.10;99.90;;;;;;5001683;28;20042;-76
2023/03/12 04:14:24;;;;;;;8.43;3.80;;;0.10;99.90;;;;;;4978865;28;20066;-76
2023/03/12 04:16:50;;;;;;;8.93;3.85;;;0.10;99.90;;;;;;5001919;28;20034;-77
2023/03/12 04:19:16;;;;;;;8.88;4.32;;;0.20;99.90;;;;;;5002345;28;20077;-77
2023/03/12 04:21:41;;;;;;;6.28;3.30;;;0.10;99.90;;;;;;4999138;28;20046;-78
2023/03/12 04:24:13;;;;;;;8.20;3.80;;;0.20;99.90;;;;;;4979849;28;20046;-77
2023/03/12 04:26:39;;;;;;;11.93;4.65;;;0.20;99.90;;;;;;4999139;28;20406;-77
2023/03/12 04:29:05;;;;;;;10.23;4.00;;;0.20;99.90;;;;;;5001758;28;20050;-83
2023/03/12 04:31:30;;;;;;;6.40;3.30;;;0.30;99.90;;;;;;4998744;28;20054;-74
2023/03/12 04:33:56;;;;;;;10.07;4.10;;;0.20;99.90;;;;;;4994901;28;20046;-79
2023/03/12 04:36:22;;;;;;;6.85;3.47;;;0.30;99.90;;;;;;4984222;28;20057;-78
2023/03/12 04:38:47;;;;;;;12.10;3.45;;;0.30;99.90;;;;;;4999097;28;20463;-78
2023/03/12 04:41:14;;;;;;;9.90;3.60;;;0.30;99.90;;;;;;5001152;28;20185;-78
2023/03/12 04:43:40;;;;;;;10.48;3.67;;;0.30;99.90;;;;;;4994057;28;20405;-77
2023/03/12 04:46:06;;;;;;;8.93;3.78;;;0.30;99.90;;;;;;4984314;28;20046;-79
2023/03/12 04:48:33;;;;;;;13.48;3.90;;;0.40;99.90;;;;;;5001452;28;20049;-78
2023/03/12 04:50:58;;;;;;;7.57;3.95;;;0.40;99.90;;;;;;4980268;28;20054;-78
2023/03/12 04:53:24;;;;;;;6.57;3.38;;;0.40;99.90;;;;;;5001909;28;20775;-77
2023/03/12 04:55:50;;;;;;;13.88;3.83;;;-0.20;99.90;;;;;;5000121;28;20044;-77
2023/03/12 04:58:16;;;;;;;13.65;4.07;;;0.40;99.90;;;;;;5002396;28;20436;-78
2023/03/12 05:00:42;;;;;;;12.63;3.88;;;0.40;99.90;;;;;;5001311;28;20042;-74
2023/03/12 05:03:08;;;;;;;11.32;4.05;;;0.40;99.90;;;;;;4997534;28;20125;-76
2023/03/12 05:05:34;;;;;;;12.00;3.72;;;0.40;99.90;;;;;;4998690;28;20112;-81
2023/03/12 05:08:01;;;;;;;14.15;4.53;;;0.50;99.90;;;;;;5000322;28;20489;-77
2023/03/12 05:10:26;;;;;;;8.40;4.10;;;0.50;99.90;;;;;;5001842;28;20067;-76
2023/03/12 05:12:52;;;;;;;9.25;4.07;;;0.50;99.90;;;;;;4984331;28;20477;-78
2023/03/12 05:15:18;;;;;;;8.98;4.35;;;0.50;99.90;;;;;;4980761;28;20430;-76
2023/03/12 05:17:44;;;;;;;11.07;4.03;;;0.50;99.90;;;;;;4998199;28;20437;-78
2023/03/12 05:20:11;;;;;;;12.38;4.25;;;0.50;99.90;;;;;;5000820;28;20038;-77
2023/03/12 05:22:37;;;;;;;7.75;3.88;;;0.50;99.90;;;;;;5001751;28;20044;-76
2023/03/12 05:25:03;;;;;;;8.60;3.78;;;0.50;99.90;;;;;;5000059;28;20046;-76
2023/03/12 05:27:29;;;;;;;9.48;3.95;;;0.50;99.90;;;;;;4981245;28;20120;-77
2023/03/12 05:29:55;;;;;;;11.13;4.20;;;0.60;99.90;;;;;;5001292;28;20133;-76
2023/03/12 05:32:20;;;;;;;8.05;3.65;;;0.60;99.90;;;;;;4995233;28;20607;-75
2023/03/12 05:34:46;;;;;;;12.48;4.07;;;0.60;99.90;;;;;;5001348;28;20050;-76
2023/03/12 05:37:12;;;;;;;10.18;4.28;;;0.60;99.90;;;;;;4991859;28;20066;-76
2023/03/12 05:39:38;;;;;;;10.02;4.22;;;0.60;99.90;;;;;;5003978;28;20045;-76
2023/03/12 05:42:04;;;;;;;11.48;4.40;;;0.60;99.90;;;;;;5009862;28;20512;-76
2023/03/12 05:44:29;;;;;;;9.18;3.92;;;0.60;99.90;;;;;;4990831;28;20780;-77
2023/03/12 05:46:55;;;;;;;8.98;3.85;;;0.60;99.90;;;;;;4990513;28;20085;-77
2023/03/12 05:49:21;;;;;;;11.93;3.97;;;0.60;99.90;;;;;;4998280;28;20050;-77
2023/03/12 05:51:48;;;;;;;9.00;3.90;;;0.60;99.90;;;;;;5001637;28;20046;-77
2023/03/12 05:54:15;;;;;;;11.55;4.80;;;0.60;99.90;;;;;;4993892;28;20034;-78
2023/03/12 05:56:41;;;;;;;7.75;3.85;;;0.60;99.90;;;;;;5000893;28;20054;-77
2023/03/12 05:59:09;;;;;;;7.40;3.80;;;0.70;99.90;;;;;;5001463;28;20145;-77
2023/03/12 06:01:36;;;;;;;8.77;3.65;;;0.60;99.90;;;;;;4992963;28;20060;-77
2023/03/12 06:04:01;;;;;;;13.60;4.13;;;0.60;99.90;;;;;;4978261;28;20062;-77
2023/03/12 06:06:30;;;;;;;10.00;4.15;;;0.60;99.90;;;;;;4998457;28;20109;-76
2023/03/12 06:08:55;;;;;;;13.75;4.53;;;0.70;99.90;;;;;;5001259;28;20531;-77
2023/03/12 06:11:21;;;;;;;8.80;3.83;;;0.70;99.90;;;;;;4997108;28;20077;-76
2023/03/12 06:13:46;;;;;;;14.25;4.47;;;0.70;99.90;;;;;;4983122;28;20052;-78
2023/03/12 06:16:18;;;;;;;7.28;3.90;;;0.70;99.90;;;;;;5004865;28;20038;-76
2023/03/12 06:18:44;;;;;;;8.88;4.50;;;0.70;99.90;;;;;;5001562;28;20034;-78
2023/03/12 06:21:16;;;;;;;10.45;3.63;;;0.80;99.90;;;;;;4967002;28;20062;-77
2023/03/12 06:23:42;;;;;;;11.48;4.10;;;0.70;99.90;;;;;;5004488;28;20053;-76
2023/03/12 06:26:09;;;;;;;11.52;4.38;;;0.70;99.90;;;;;;5001278;28;20369;-77
2023/03/12 06:28:35;;;;;;;8.88;4.65;;;0.80;99.90;;;;;;5001647;28;20093;-77
2023/03/12 06:31:01;;;;;;;14.27;4.28;;;0.80;99.90;;;;;;4987309;28;20061;-78
2023/03/12 06:33:28;;;;;;;13.77;4.72;;;0.80;99.90;;;;;;4996606;28;20081;-77
2023/03/12 06:35:58;;;;;;;8.07;3.95;;;0.80;99.90;;;;;;5000565;28;20513;-77
2023/03/12 06:38:25;;;;;;;10.35;4.00;;;0.80;99.90;;;;;;5000481;28;20049;-77
2023/03/12 06:40:59;;;;;;;14.20;4.82;;;0.90;99.90;;;;;;5002920;28;20065;-77
2023/03/12 06:43:27;;;;;;;15.35;5.07;;;0.90;99.90;;;;;;5001084;28;20045;-77
2023/03/12 06:45:54;;;;;;;10.30;5.05;;;0.90;99.90;;;;;;5002791;28;20050;-76
2023/03/12 06:48:21;;;;;;;12.80;5.10;;;0.90;99.90;;;;;;5003927;28;20529;-78
2023/03/12 06:50:46;;;;;;;11.57;4.70;;;0.90;99.90;;;;;;5002627;28;20388;-77
2023/03/12 06:53:12;;;;;;;11.73;5.47;;;0.90;99.90;;;;;;5002408;28;20046;-77
2023/03/12 06:55:37;;;;;;;10.30;4.78;;;0.90;99.90;;;;;;5004191;28;20045;-77
2023/03/12 06:58:03;;;;;;;12.27;5.55;;;1.00;99.90;;;;;;5000613;28;20039;-77
2023/03/12 07:00:30;;;;;;;9.77;5.07;;;1.00;99.90;;;;;;5000578;28;20042;-76
2023/03/12 07:02:56;;;;;;;12.57;5.97;;;1.00;99.90;;;;;;5001853;28;20207;-77
2023/03/12 07:05:23;;;;;;;12.07;5.30;;;1.00;99.90;;;;;;5002624;28;20144;-77
2023/03/12 07:07:48;;;;;;;10.43;5.70;;;1.00;99.90;;;;;;5002816;28;20042;-75
2023/03/12 07:10:14;;;;;;;14.45;4.85;;;1.00;99.90;;;;;;5001231;28;20057;-78
2023/03/12 07:12:40;;;;;;;12.00;5.38;;;1.00;99.90;;;;;;5003065;28;20125;-77
2023/03/12 07:15:06;;;;;;;11.10;5.43;;;1.00;99.90;;;;;;5015660;28;20555;-76
2023/03/12 07:17:31;;;;;;;15.10;6.07;;;1.00;99.90;;;;;;5000167;28;20045;-78
2023/03/12 07:19:57;;;;;;;13.13;5.97;;;1.00;99.90;;;;;;5000714;28;20038;-80
2023/03/12 07:22:23;;;;;;;13.75;6.05;;;1.70;99.90;;;;;;5004169;28;20370;-80
2023/03/12 07:24:50;;;;;;;13.40;6.18;;;1.00;99.90;;;;;;4985202;28;20054;-79
2023/03/12 07:27:16;;;;;;;16.58;6.30;;;0.90;99.90;;;;;;4981743;28;20058;-78
2023/03/12 07:29:42;;;;;;;15.13;6.25;;;0.90;99.90;;;;;;4982600;28;20125;-77
2023/03/12 07:32:08;;;;;;;13.35;5.93;;;0.90;99.90;;;;;;4999966;28;20054;-79
2023/03/12 07:34:33;;;;;;;14.35;6.28;;;0.90;99.90;;;;;;5000034;28;20486;-79
2023/03/12 07:36:59;;;;;;;16.83;6.38;;;0.90;99.90;;;;;;5000732;28;20512;-80
2023/03/12 07:39:25;;;;;;;14.50;6.53;;;0.90;99.90;;;;;;5018214;28;20103;-84
2023/03/12 07:41:51;;;;;;;11.43;6.72;;;0.90;99.90;;;;;;4997904;28;20084;-80
2023/03/12 07:44:16;;;;;;;13.65;6.78;;;0.90;99.90;;;;;;5000016;28;20038;-80
2023/03/12 07:46:42;;;;;;;16.65;7.18;;;0.80;99.90;;;;;;4982185;28;20046;-83
2023/03/12 07:49:08;;;;;;;16.92;7.10;;;0.80;99.90;;;;;;5000907;28;20413;-83
2023/03/12 07:51:34;;;;;;;14.00;7.32;;;0.90;99.90;;;;;;5018002;28;20125;-84
2023/03/12 07:53:59;;;;;;;13.65;7.40;;;0.90;99.90;;;;;;5002349;28;20558;-83
2023/03/12 07:56:25;;;;;;;15.85;7.75;;;0.90;99.90;;;;;;4999441;28;20077;-82
2023/03/12 07:58:50;;;;;;;16.00;8.73;;;0.90;99.90;;;;;;4999729;28;20529;-83
2023/03/12 08:01:16;;;;;;;19.17;8.48;;;0.90;99.90;;;;;;4996351;28;20513;-83
2023/03/12 08:03:42;;;;;;;19.33;8.55;;;0.90;99.90;;;;;;5002694;28;20046;-82
2023/03/12 08:06:08;;;;;;;16.00;8.73;;;0.90;99.90;;;;;;5001307;28;20125;-83
2023/03/12 08:08:35;;;;;;;15.95;8.65;;;1.00;99.90;;;;;;4999247;28;20444;-83
2023/03/12 08:11:03;;;;;;;18.08;8.88;;;1.00;99.90;;;;;;4999230;28;20453;-83
2023/03/12 08:13:28;;;;;;;19.30;8.60;;;1.00;99.90;;;;;;4968282;28;20053;-83
2023/03/12 08:15:54;;;;;;;18.73;8.27;;;1.00;99.90;;;;;;5002333;28;20046;-84
2023/03/12 08:18:20;;;;;;;15.10;7.85;;;1.00;99.90;;;;;;5000176;28;20385;-79
2023/03/12 08:20:52;;;;;;;16.73;7.85;;;1.00;99.90;;;;;;4999497;28;20050;-81
2023/03/12 08:23:19;;;;;;;17.33;7.50;;;1.00;99.90;;;;;;5001300;28;20038;-79
2023/03/12 08:25:48;;;;;;;13.75;7.32;;;1.00;99.90;;;;;;5005020;28;20046;-80
2023/03/12 08:28:16;;;;;;;10.82;6.90;;;1.10;99.90;;;;;;4981817;28;20527;-78
2023/03/12 08:30:53;;;;;;;12.65;7.60;;;1.10;99.90;;;;;;5002394;28;20077;-79
2023/03/12 08:33:19;;;;;;;17.13;7.57;;;1.10;99.90;;;;;;4993189;28;20050;-79
2023/03/12 08:35:45;;;;;;;16.38;7.68;;;1.10;99.90;;;;;;4999586;28;20038;-78
2023/03/12 08:38:11;;;;;;;12.65;7.28;;;1.10;99.90;;;;;;4990293;28;20882;-79
2023/03/12 08:40:37;;;;;;;12.63;6.97;;;1.10;99.90;;;;;;4979494;28;20053;-79
2023/03/12 08:43:03;;;;;;;14.95;7.40;;;1.10;99.90;;;;;;4999752;28;20125;-78
2023/03/12 08:45:29;;;;;;;16.17;7.10;;;1.20;99.90;;;;;;4998424;28;20164;-79
2023/03/12 08:47:55;;;;;;;13.70;7.63;;;1.20;99.90;;;;;;4979425;28;20081;-78
2023/03/12 08:50:21;;;;;;;13.18;6.80;;;1.20;99.90;;;;;;4998052;28;20457;-81
2023/03/12 08:52:47;;;;;;;14.57;7.40;;;1.20;99.90;;;;;;4998353;28;20042;-80
2023/03/12 08:55:13;;;;;;;15.82;7.07;;;1.20;99.90;;;;;;5006033;28;20188;-80
2023/03/12 08:57:39;;;;;;;12.75;6.82;;;1.20;99.90;;;;;;4980653;28;20045;-80
2023/03/12 09:00:10;;;;;;;13.70;7.35;;;1.30;99.90;;;;;;4999107;28;20509;-79
2023/03/12 09:02:36;;;;;;;12.50;6.82;;;1.20;99.90;;;;;;4996831;28;20177;-79
2023/03/12 09:05:03;;;;;;;15.23;6.78;;;1.20;99.90;;;;;;4998589;28;20084;-79
2023/03/12 09:07:30;;;;;;;9.93;6.55;;;1.30;99.90;;;;;;4998491;28;20061;-80
2023/03/12 09:09:56;;;;;;;11.07;6.78;;;1.30;99.90;;;;;;4998498;28;20038;-80
2023/03/12 09:12:22;;;;;;;10.82;6.80;;;2.20;99.90;;;;;;5001046;28;20584;-82
2023/03/12 09:14:49;;;;;;;13.75;7.10;;;1.20;99.90;;;;;;4984015;28;20120;-80
2023/03/12 09:17:15;;;;;;;11.63;6.90;;;1.30;99.90;;;;;;4998367;28;20401;-80
2023/03/12 09:19:40;;;;;;;12.93;6.80;;;1.30;99.90;;;;;;5001584;28;20045;-80
2023/03/12 09:22:06;;;;;;;13.55;7.07;;;1.30;99.90;;;;;;5000967;28;20062;-80
2023/03/12 09:24:32;;;;;;;10.90;6.20;;;1.30;99.90;;;;;;4998327;28;20042;-78
2023/03/12 09:26:58;;;;;;;9.75;6.28;;;1.30;99.90;;;;;;4998626;28;20038;-78
2023/03/12 09:29:23;;;;;;;10.18;6.22;;;1.30;99.90;;;;;;4976242;28;20481;-78
2023/03/12 09:31:50;;;;;;;9.85;7.18;;;2.10;99.90;;;;;;4991640;28;20696;-81
2023/03/12 09:34:16;;;;;;;16.27;7.35;;;0.50;99.90;;;;;;4965597;28;20050;-80
2023/03/12 09:36:42;;;;;;;11.85;6.30;;;1.30;99.90;;;;;;4990647;28;20449;-78
2023/03/12 09:39:08;;;;;;;16.38;8.68;;;1.30;99.90;;;;;;4990465;28;20046;-80
2023/03/12 09:41:38;;;;;;;14.52;7.45;;;1.30;99.90;;;;;;4990410;28;20083;-79
2023/03/12 09:44:38;;;;;;;18.05;9.00;;;1.30;99.90;;;;;;4993480;28;20045;-78
2023/03/12 09:47:16;;;;;;;13.27;6.95;;;1.30;99.90;;;;;;4970872;28;20078;-79
2023/03/12 09:49:53;;;;;;;10.73;7.00;;;1.30;99.90;;;;;;4977142;28;20069;-77
2023/03/12 09:52:28;;;;;;;9.77;6.43;;;1.30;99.90;;;;;;4996330;28;20042;-79
2023/03/12 09:55:13;;;;;;;12.32;8.38;;;1.40;99.90;;;;;;5013698;28;20053;-80
2023/03/12 09:57:40;;;;;;;13.25;7.97;;;1.40;99.90;;;;;;5013563;28;20811;-80
2023/03/12 10:00:11;;;;;;;12.13;6.95;;;1.40;99.90;;;;;;4996051;28;20054;-78
2023/03/12 10:03:07;;;;;;;12.05;6.50;;;1.40;99.90;;;;;;4996278;28;20444;-79
2023/03/12 10:06:02;;;;;;;9.82;6.30;;;1.40;99.90;;;;;;4993963;28;20053;-78
2023/03/12 10:08:50;;;;;;;12.60;6.38;;;1.50;99.90;;;;;;4993670;28;20043;-78
2023/03/12 10:11:52;;;;;;;12.57;6.82;;;1.50;99.90;;;;;;4993893;28;20050;-78
2023/03/12 10:14:44;;;;;;;12.88;7.10;;;1.50;99.90;;;;;;4993628;28;20481;-78
2023/03/12 10:17:38;;;;;;;11.23;6.38;;;1.50;99.90;;;;;;4971953;28;20631;-78
2023/03/12 10:20:38;;;;;;;13.00;7.38;;;1.60;99.90;;;;;;5003153;28;20101;-78
2023/03/12 10:23:35;;;;;;;10.07;6.90;;;1.60;99.90;;;;;;5002996;28;20057;-78
2023/03/12 10:26:24;;;;;;;11.82;6.80;;;1.60;99.90;;;;;;4989542;28;20050;-77
2023/03/12 10:29:14;;;;;;;10.30;6.53;;;1.80;99.90;;;;;;5002293;28;20050;-78
2023/03/12 10:32:00;;;;;;;12.07;6.88;;;1.70;99.90;;;;;;5001386;28;20049;-77
2023/03/12 10:34:44;;;;;;;13.60;7.60;;;1.70;99.90;;;;;;4993094;28;20061;-76
2023/03/12 10:37:20;;;;;;;10.68;6.90;;;1.70;99.90;;;;;;4993177;28;20065;-75
2023/03/12 10:39:46;;;;;;;10.82;7.00;;;1.80;99.90;;;;;;5001822;28;20485;-77
2023/03/12 10:42:18;;;;;;;11.70;6.72;;;1.80;99.90;;;;;;5004087;28;20050;-78
2023/03/12 10:44:47;;;;;;;12.02;6.60;;;1.80;99.90;;;;;;5001926;28;20117;-78
2023/03/12 10:47:36;;;;;;;11.45;6.97;;;1.90;99.90;;;;;;4999016;28;20046;-78
2023/03/12 10:50:27;;;;;;;10.23;7.00;;;1.90;99.90;;;;;;5004012;28;20085;-78
2023/03/12 10:53:12;;;;;;;11.07;7.25;;;1.90;99.90;;;;;;4995701;28;20529;-77
2023/03/12 10:55:39;;;;;;;12.50;7.40;;;2.00;99.90;;;;;;4975553;28;20070;-79
2023/03/12 10:58:04;;;;;;;10.90;7.15;;;2.10;99.90;;;;;;5003705;28;20108;-77
2023/03/12 11:00:32;;;;;;;15.95;7.45;;;2.10;99.90;;;;;;5002868;28;20056;-78
2023/03/12 11:03:17;;;;;;;12.45;6.75;;;2.10;99.90;;;;;;5000547;28;20101;-76
2023/03/12 11:05:51;;;;;;;11.63;7.07;;;2.20;99.90;;;;;;4983527;28;20058;-76
2023/03/12 11:08:32;;;;;;;15.65;9.35;;;2.20;99.90;;;;;;5003734;28;20487;-78
2023/03/12 11:10:59;;;;;;;15.60;9.05;;;2.30;99.90;;;;;;5000386;28;20056;-79
2023/03/12 11:13:43;;;;;;;12.00;7.25;;;2.30;99.90;;;;;;5000435;28;20042;-78
2023/03/12 11:16:15;;;;;;;17.80;8.68;;;2.40;99.90;;;;;;4975518;28;20038;-75
2023/03/12 11:18:58;;;;;;;14.43;8.60;;;2.40;99.90;;;;;;5002812;28;20049;-76
2023/03/12 11:21:24;;;;;;;12.60;7.68;;;2.50;99.90;;;;;;4994692;28;20057;-76
2023/03/12 11:23:56;;;;;;;18.70;8.75;;;2.60;99.90;;;;;;5006706;28;20045;-78
2023/03/12 11:26:32;;;;;;;14.13;9.00;;;2.60;99.90;;;;;;5000109;28;20065;-78
2023/03/12 11:29:24;;;;;;;16.73;9.30;;;2.70;99.90;;;;;;5000511;28;20380;-79
2023/03/12 11:32:09;;;;;;;14.35;10.13;;;2.70;99.90;;;;;;4979218;28;20065;-78
2023/03/12 11:34:38;;;;;;;17.02;10.02;;;2.80;99.90;;;;;;4965638;28;20051;-81
2023/03/12 11:37:12;;;;;;;19.17;9.77;;;2.90;99.90;;;;;;4981700;28;20054;-79
2023/03/12 11:39:50;;;;;;;17.08;10.50;;;2.90;99.90;;;;;;4983495;28;20042;-77
2023/03/12 11:42:28;;;;;;;16.23;9.65;;;3.00;99.90;;;;;;4983213;28;20100;-77
2023/03/12 11:45:05;;;;;;;17.55;10.25;;;3.10;99.90;;;;;;4982834;28;20089;-78
2023/03/12 11:47:49;;;;;;;17.20;9.32;;;3.10;99.90;;;;;;4980332;28;20445;-81
2023/03/12 11:50:21;;;;;;;21.63;11.38;;;3.20;99.90;;;;;;4975213;28;20054;-78
2023/03/12 11:52:53;;;;;;;17.38;10.85;;;3.30;99.90;;;;;;4983787;28;20134;-78
2023/03/12 11:55:31;;;;;;;23.25;12.25;;;3.70;99.90;;;;;;4975091;28;20034;-79
2023/03/12 11:58:15;;;;;;;20.63;11.57;;;3.50;99.90;;;;;;4982262;28;20054;-81
2023/03/12 12:01:00;;;;;;;17.38;9.25;;;3.60;99.90;;;;;;4980022;28;20085;-77
2023/03/12 12:04:23;;;;;;;16.42;10.50;;;3.80;99.90;;;;;;4979929;28;20050;-78
2023/03/12 12:07:33;;;;;;;18.67;10.75;;;3.80;99.90;;;;;;4880637;29;20067;-77
2023/03/12 12:10:19;;;;;;;16.27;9.63;;;3.90;99.90;;;;;;4842140;29;20053;-78
2023/03/12 12:13:16;;;;;;;17.35;10.82;;;4.00;99.90;;;;;;4841067;29;20041;-75
2023/03/12 12:15:53;;;;;;;21.05;11.13;;;4.20;99.90;;;;;;4828474;29;20102;-79
2023/03/12 12:18:39;;;;;;;20.40;11.63;;;4.30;99.90;;;;;;4854912;29;20065;-80
2023/03/12 12:21:22;;;;;;;17.80;11.00;;;4.40;99.90;;;;;;4775712;30;20063;-81
2023/03/12 12:24:11;;;;;;;21.50;11.48;;;4.50;99.90;;;;;;4782456;30;20174;-76
2023/03/12 12:27:13;;;;;;;18.92;11.95;;;4.60;99.90;;;;;;4782291;30;20562;-77
2023/03/12 12:30:00;;;;;;;15.40;9.95;;;4.70;99.90;;;;;;4763655;30;20047;-78
2023/03/12 12:32:53;;;;;;;20.40;9.80;;;4.80;99.90;;;;;;4770592;30;20067;-77
2023/03/12 12:35:36;;;;;;;23.35;12.70;;;4.90;99.90;;;;;;4768874;30;20761;-77
2023/03/12 12:38:29;;;;;;;20.77;12.45;;;5.00;99.90;;;;;;4839940;29;20069;-76
2023/03/12 12:41:03;;;;;;;27.58;14.13;;;5.20;99.90;;;;;;4885555;29;20056;-77
2023/03/12 12:44:03;;;;;;;25.60;13.80;;;5.30;99.90;;;;;;4904655;29;20055;-78
2023/03/12 12:46:35;;;;;;;21.23;12.98;;;5.50;99.90;;;;;;4909855;29;20063;-79
2023/03/12 12:49:24;;;;;;;31.48;13.68;;;5.60;99.90;;;;;;4904185;29;20064;-79
2023/03/12 12:51:55;;;;;;;27.38;13.77;;;5.70;99.90;;;;;;4894845;29;20071;-79
2023/03/12 12:54:36;;;;;;;33.97;14.98;;;5.90;99.90;;;;;;4911061;29;20052;-78
2023/03/12 12:57:24;;;;;;;30.63;14.82;;;6.50;99.90;;;;;;4910534;28;20048;-76
2023/03/12 13:00:31;;;;;;;32.03;14.55;;;6.10;99.90;;;;;;4981796;28;20170;-81
2023/03/12 13:02:57;;;;;;;27.13;13.23;;;6.20;99.90;;;;;;4961767;28;20120;-76